Hlavní strana
METAR-TAF:

METAR-TAF

Letiště :

Šanghaj-Pudong, Čína

Mezinárodní letiště Šanghaj Pchu-tung

zeměpisná šířka: 31-07N, zeměpisná délka: 121-46E, výška: 4 m

Aktuální stav počasí

Zpráva byla vytvořena před 20 minutami, v 23:00 UTC
Severoseverovýchodní vítr 10 kt
Teplota 8°C
Vlhkost vzduchu 76%
Tlak 1025 hPa
Viditelnost: 3000 m
Zataženo ve výšce 2000 ft
kouřmo

METAR: ZSPD 182300Z 02005MPS 3000 BR OVC020 08/04 Q1025 NOSIG

Čas: 07:20 (23:20 UTC)

Předpověď počasí

Zpráva byla vytvořena před 8 hodinami a 6 minutami, v 15:14 UTC
Předpověď platná od 18 v 18 UTC do 19 v 18 UTC
Severoseverovýchodní vítr 8 kt
Viditelnost: 3500 m
Oblačno až skoro zataženo ve výšce 1100 ft
kouřmo

TAF: ZSPD 181514Z 1818/1918 03004MPS 3500 BR BKN011 TX11/1906Z TN06/1821Z

Stav a předpovědi počasí z více než 4 000 letišť (zprávy METAR a TAF).

Červené a žluté tečky na mapě představují dostupné meteorologické stanice.

Když kurzor umístíte na tečku, zobrazí se název stanice.

Pak kliknutím zobrazíte stav a předpověď počasí.

Chcete-li změnit mapu, kliknutím na zelené tlačítko se znaménkem +mapu přiblížíte, kliknutím na zelené tlačítko se znaménkem – mapu oddálíte a kliknutím na zelené šipky přejdete na sousední mapy.


METAR-TAF: